sensor_id;sensor_type;location;lat;lon;timestamp;temperature;humidity
20598;DHT22;10457;48.770;11.446;2022-11-20T00:00:12;2.70;99.90
20598;DHT22;10457;48.770;11.446;2022-11-20T00:05:39;2.70;99.90
20598;DHT22;10457;48.770;11.446;2022-11-20T00:11:03;2.70;99.90
20598;DHT22;10457;48.770;11.446;2022-11-20T00:16:28;2.70;99.90
20598;DHT22;10457;48.770;11.446;2022-11-20T00:21:53;2.70;99.90
20598;DHT22;10457;48.770;11.446;2022-11-20T00:27:15;2.70;99.90
20598;DHT22;10457;48.770;11.446;2022-11-20T00:32:36;2.70;99.90
20598;DHT22;10457;48.770;11.446;2022-11-20T00:37:59;2.70;99.90
20598;DHT22;10457;48.770;11.446;2022-11-20T00:43:20;2.60;99.90
20598;DHT22;10457;48.770;11.446;2022-11-20T00:48:42;2.70;99.90
20598;DHT22;10457;48.770;11.446;2022-11-20T00:54:05;2.70;99.90
20598;DHT22;10457;48.770;11.446;2022-11-20T00:59:28;2.60;99.90
20598;DHT22;10457;48.770;11.446;2022-11-20T01:04:49;2.50;99.90
20598;DHT22;10457;48.770;11.446;2022-11-20T01:10:12;2.60;99.90
20598;DHT22;10457;48.770;11.446;2022-11-20T01:15:34;2.70;99.90
20598;DHT22;10457;48.770;11.446;2022-11-20T01:21:01;2.70;99.90
20598;DHT22;10457;48.770;11.446;2022-11-20T01:26:27;2.70;99.90
20598;DHT22;10457;48.770;11.446;2022-11-20T01:31:49;2.80;99.90
20598;DHT22;10457;48.770;11.446;2022-11-20T01:37:12;2.70;99.90
20598;DHT22;10457;48.770;11.446;2022-11-20T01:42:35;2.70;99.90
20598;DHT22;10457;48.770;11.446;2022-11-20T01:48:14;2.80;99.90
20598;DHT22;10457;48.770;11.446;2022-11-20T01:53:36;2.80;99.90
20598;DHT22;10457;48.770;11.446;2022-11-20T01:59:02;2.90;99.90
20598;DHT22;10457;48.770;11.446;2022-11-20T02:04:28;2.90;99.90
20598;DHT22;10457;48.770;11.446;2022-11-20T02:09:51;2.90;99.90
20598;DHT22;10457;48.770;11.446;2022-11-20T02:15:14;2.80;99.90
20598;DHT22;10457;48.770;11.446;2022-11-20T02:20:35;2.80;99.90
20598;DHT22;10457;48.770;11.446;2022-11-20T02:26:00;2.90;99.90
20598;DHT22;10457;48.770;11.446;2022-11-20T02:31:23;2.90;99.90
20598;DHT22;10457;48.770;11.446;2022-11-20T02:36:44;2.90;99.90
20598;DHT22;10457;48.770;11.446;2022-11-20T02:42:09;2.80;99.90
20598;DHT22;10457;48.770;11.446;2022-11-20T02:47:31;2.80;99.90
20598;DHT22;10457;48.770;11.446;2022-11-20T02:52:52;2.90;99.90
20598;DHT22;10457;48.770;11.446;2022-11-20T02:58:15;2.90;99.90
20598;DHT22;10457;48.770;11.446;2022-11-20T03:03:37;2.90;99.90
20598;DHT22;10457;48.770;11.446;2022-11-20T03:08:58;2.90;99.90
20598;DHT22;10457;48.770;11.446;2022-11-20T03:14:21;3.00;99.90
20598;DHT22;10457;48.770;11.446;2022-11-20T03:19:43;3.00;99.90
20598;DHT22;10457;48.770;11.446;2022-11-20T03:25:04;3.00;99.90
20598;DHT22;10457;48.770;11.446;2022-11-20T03:30:28;3.10;99.90
20598;DHT22;10457;48.770;11.446;2022-11-20T03:35:50;3.10;99.90
20598;DHT22;10457;48.770;11.446;2022-11-20T03:41:16;3.10;99.90
20598;DHT22;10457;48.770;11.446;2022-11-20T03:46:43;3.10;99.90
20598;DHT22;10457;48.770;11.446;2022-11-20T03:52:04;3.20;99.90
20598;DHT22;10457;48.770;11.446;2022-11-20T03:57:26;3.30;99.90
20598;DHT22;10457;48.770;11.446;2022-11-20T04:02:48;3.60;99.90
20598;DHT22;10457;48.770;11.446;2022-11-20T04:08:10;3.60;99.90
20598;DHT22;10457;48.770;11.446;2022-11-20T04:13:33;3.70;99.90
20598;DHT22;10457;48.770;11.446;2022-11-20T04:18:57;3.70;99.90
20598;DHT22;10457;48.770;11.446;2022-11-20T04:24:26;3.80;99.90
20598;DHT22;10457;48.770;11.446;2022-11-20T04:29:51;3.90;99.90
20598;DHT22;10457;48.770;11.446;2022-11-20T04:35:13;4.00;99.90
20598;DHT22;10457;48.770;11.446;2022-11-20T04:40:35;3.90;99.90
20598;DHT22;10457;48.770;11.446;2022-11-20T04:45:57;4.10;99.90
20598;DHT22;10457;48.770;11.446;2022-11-20T04:51:23;4.30;99.90
20598;DHT22;10457;48.770;11.446;2022-11-20T04:56:44;4.40;99.90
20598;DHT22;10457;48.770;11.446;2022-11-20T05:02:06;4.40;99.90
20598;DHT22;10457;48.770;11.446;2022-11-20T05:07:28;4.50;99.90
20598;DHT22;10457;48.770;11.446;2022-11-20T05:12:50;4.50;99.90
20598;DHT22;10457;48.770;11.446;2022-11-20T05:18:11;4.70;99.90
20598;DHT22;10457;48.770;11.446;2022-11-20T05:23:34;4.80;99.90
20598;DHT22;10457;48.770;11.446;2022-11-20T05:28:55;4.80;99.90
20598;DHT22;10457;48.770;11.446;2022-11-20T05:34:17;4.70;99.90
20598;DHT22;10457;48.770;11.446;2022-11-20T05:39:39;4.70;99.90
20598;DHT22;10457;48.770;11.446;2022-11-20T05:45:03;4.80;99.90
20598;DHT22;10457;48.770;11.446;2022-11-20T05:50:25;4.80;99.90
20598;DHT22;10457;48.770;11.446;2022-11-20T05:55:56;4.90;99.90
20598;DHT22;10457;48.770;11.446;2022-11-20T06:01:20;4.80;99.90
20598;DHT22;10457;48.770;11.446;2022-11-20T06:06:43;4.90;99.90
20598;DHT22;10457;48.770;11.446;2022-11-20T06:12:06;4.90;99.90
20598;DHT22;10457;48.770;11.446;2022-11-20T06:17:28;4.80;99.90
20598;DHT22;10457;48.770;11.446;2022-11-20T06:22:49;4.90;99.90
20598;DHT22;10457;48.770;11.446;2022-11-20T06:28:12;4.80;99.90
20598;DHT22;10457;48.770;11.446;2022-11-20T06:33:33;4.90;99.90
20598;DHT22;10457;48.770;11.446;2022-11-20T06:38:55;5.00;99.90
20598;DHT22;10457;48.770;11.446;2022-11-20T06:44:18;4.90;99.90
20598;DHT22;10457;48.770;11.446;2022-11-20T06:49:39;4.90;99.90
20598;DHT22;10457;48.770;11.446;2022-11-20T06:55:01;5.00;99.90
20598;DHT22;10457;48.770;11.446;2022-11-20T07:00:24;5.00;99.90
20598;DHT22;10457;48.770;11.446;2022-11-20T07:05:46;5.00;99.90
20598;DHT22;10457;48.770;11.446;2022-11-20T07:11:07;5.00;99.90
20598;DHT22;10457;48.770;11.446;2022-11-20T07:16:30;5.00;99.90
20598;DHT22;10457;48.770;11.446;2022-11-20T07:21:52;5.00;99.90
20598;DHT22;10457;48.770;11.446;2022-11-20T07:27:13;4.90;99.90
20598;DHT22;10457;48.770;11.446;2022-11-20T07:32:36;5.10;99.90
20598;DHT22;10457;48.770;11.446;2022-11-20T07:37:57;5.00;99.90
20598;DHT22;10457;48.770;11.446;2022-11-20T07:43:18;5.00;99.90
20598;DHT22;10457;48.770;11.446;2022-11-20T07:48:42;5.10;99.90
20598;DHT22;10457;48.770;11.446;2022-11-20T07:54:03;5.20;99.90
20598;DHT22;10457;48.770;11.446;2022-11-20T07:59:25;5.20;99.90
20598;DHT22;10457;48.770;11.446;2022-11-20T08:04:48;5.20;99.90
20598;DHT22;10457;48.770;11.446;2022-11-20T08:10:11;5.30;99.90
20598;DHT22;10457;48.770;11.446;2022-11-20T08:15:35;5.30;99.90
20598;DHT22;10457;48.770;11.446;2022-11-20T08:21:01;5.30;99.90
20598;DHT22;10457;48.770;11.446;2022-11-20T08:26:23;5.30;99.90
20598;DHT22;10457;48.770;11.446;2022-11-20T08:31:45;5.30;99.90
20598;DHT22;10457;48.770;11.446;2022-11-20T08:37:07;5.50;99.90
20598;DHT22;10457;48.770;11.446;2022-11-20T08:42:29;5.50;99.90
20598;DHT22;10457;48.770;11.446;2022-11-20T08:47:51;5.60;99.90
20598;DHT22;10457;48.770;11.446;2022-11-20T08:53:14;5.80;99.90
20598;DHT22;10457;48.770;11.446;2022-11-20T08:58:35;5.80;99.90
20598;DHT22;10457;48.770;11.446;2022-11-20T09:03:57;5.80;99.90
20598;DHT22;10457;48.770;11.446;2022-11-20T09:09:20;5.80;99.90
20598;DHT22;10457;48.770;11.446;2022-11-20T09:14:43;6.00;99.90
20598;DHT22;10457;48.770;11.446;2022-11-20T09:20:05;6.10;99.90
20598;DHT22;10457;48.770;11.446;2022-11-20T09:25:29;6.10;99.90
20598;DHT22;10457;48.770;11.446;2022-11-20T09:30:51;6.10;99.90
20598;DHT22;10457;48.770;11.446;2022-11-20T09:36:15;6.00;99.90
20598;DHT22;10457;48.770;11.446;2022-11-20T09:42:01;6.10;99.90
20598;DHT22;10457;48.770;11.446;2022-11-20T09:47:46;6.10;99.90
20598;DHT22;10457;48.770;11.446;2022-11-20T09:53:23;6.30;99.90
20598;DHT22;10457;48.770;11.446;2022-11-20T09:58:55;6.20;99.90
20598;DHT22;10457;48.770;11.446;2022-11-20T10:04:20;6.20;99.90
20598;DHT22;10457;48.770;11.446;2022-11-20T10:09:48;6.40;99.90
20598;DHT22;10457;48.770;11.446;2022-11-20T10:15:22;6.40;99.90
20598;DHT22;10457;48.770;11.446;2022-11-20T10:20:55;6.50;99.90
20598;DHT22;10457;48.770;11.446;2022-11-20T10:26:22;6.50;99.90
20598;DHT22;10457;48.770;11.446;2022-11-20T10:31:51;6.50;99.90
20598;DHT22;10457;48.770;11.446;2022-11-20T10:37:17;6.50;99.90
20598;DHT22;10457;48.770;11.446;2022-11-20T10:42:43;6.60;99.90
20598;DHT22;10457;48.770;11.446;2022-11-20T10:48:12;6.70;99.90
20598;DHT22;10457;48.770;11.446;2022-11-20T10:53:51;6.80;99.90
20598;DHT22;10457;48.770;11.446;2022-11-20T10:59:38;6.70;99.90
20598;DHT22;10457;48.770;11.446;2022-11-20T11:05:18;6.70;99.90
20598;DHT22;10457;48.770;11.446;2022-11-20T11:10:47;6.90;99.90
20598;DHT22;10457;48.770;11.446;2022-11-20T11:16:20;6.90;93.90
20598;DHT22;10457;48.770;11.446;2022-11-20T11:21:49;7.00;93.70
20598;DHT22;10457;48.770;11.446;2022-11-20T11:27:13;7.10;92.50
20598;DHT22;10457;48.770;11.446;2022-11-20T11:32:37;6.80;95.60
20598;DHT22;10457;48.770;11.446;2022-11-20T11:38:05;6.70;99.90
20598;DHT22;10457;48.770;11.446;2022-11-20T11:43:31;6.60;99.90
20598;DHT22;10457;48.770;11.446;2022-11-20T11:49:16;6.70;99.90
20598;DHT22;10457;48.770;11.446;2022-11-20T11:54:43;6.70;99.90
20598;DHT22;10457;48.770;11.446;2022-11-20T12:03:38;6.90;99.90
20598;DHT22;10457;48.770;11.446;2022-11-20T12:09:05;7.10;99.90
20598;DHT22;10457;48.770;11.446;2022-11-20T12:14:34;7.20;98.90
20598;DHT22;10457;48.770;11.446;2022-11-20T12:19:59;7.30;99.90
20598;DHT22;10457;48.770;11.446;2022-11-20T12:25:24;7.20;99.60
20598;DHT22;10457;48.770;11.446;2022-11-20T12:30:57;7.30;99.90
20598;DHT22;10457;48.770;11.446;2022-11-20T12:36:32;7.80;95.50
20598;DHT22;10457;48.770;11.446;2022-11-20T12:48:38;8.20;88.40
20598;DHT22;10457;48.770;11.446;2022-11-20T12:54:31;8.00;89.60
20598;DHT22;10457;48.770;11.446;2022-11-20T13:00:16;7.70;90.90
20598;DHT22;10457;48.770;11.446;2022-11-20T13:05:47;7.50;91.50
20598;DHT22;10457;48.770;11.446;2022-11-20T13:11:18;7.40;91.90
20598;DHT22;10457;48.770;11.446;2022-11-20T13:16:48;7.30;93.00
20598;DHT22;10457;48.770;11.446;2022-11-20T13:22:12;7.40;93.80
20598;DHT22;10457;48.770;11.446;2022-11-20T13:27:48;7.40;92.50
20598;DHT22;10457;48.770;11.446;2022-11-20T13:33:23;7.40;92.30
20598;DHT22;10457;48.770;11.446;2022-11-20T13:38:51;7.30;92.90
20598;DHT22;10457;48.770;11.446;2022-11-20T13:44:23;7.40;92.80
20598;DHT22;10457;48.770;11.446;2022-11-20T13:49:47;7.30;93.80
20598;DHT22;10457;48.770;11.446;2022-11-20T13:55:16;7.20;94.80
20598;DHT22;10457;48.770;11.446;2022-11-20T14:00:48;7.20;94.20
20598;DHT22;10457;48.770;11.446;2022-11-20T14:06:19;7.10;95.30
20598;DHT22;10457;48.770;11.446;2022-11-20T14:11:51;7.00;96.80
20598;DHT22;10457;48.770;11.446;2022-11-20T14:17:19;6.90;98.20
20598;DHT22;10457;48.770;11.446;2022-11-20T14:22:48;6.90;99.00
20598;DHT22;10457;48.770;11.446;2022-11-20T14:28:17;7.00;96.30
20598;DHT22;10457;48.770;11.446;2022-11-20T14:33:50;6.90;94.50
20598;DHT22;10457;48.770;11.446;2022-11-20T14:39:20;6.90;95.50
20598;DHT22;10457;48.770;11.446;2022-11-20T14:44:42;6.80;94.20
20598;DHT22;10457;48.770;11.446;2022-11-20T14:50:11;6.90;94.50
20598;DHT22;10457;48.770;11.446;2022-11-20T14:55:35;6.90;94.80
20598;DHT22;10457;48.770;11.446;2022-11-20T15:00:59;7.10;94.80
20598;DHT22;10457;48.770;11.446;2022-11-20T15:06:56;6.90;94.10
20598;DHT22;10457;48.770;11.446;2022-11-20T15:12:18;6.70;96.30
20598;DHT22;10457;48.770;11.446;2022-11-20T15:17:41;6.50;97.50
20598;DHT22;10457;48.770;11.446;2022-11-20T15:23:10;6.40;98.20
20598;DHT22;10457;48.770;11.446;2022-11-20T15:28:35;6.40;99.80
20598;DHT22;10457;48.770;11.446;2022-11-20T15:34:00;6.40;99.90
20598;DHT22;10457;48.770;11.446;2022-11-20T15:39:23;6.40;99.90
20598;DHT22;10457;48.770;11.446;2022-11-20T15:44:44;6.40;99.90
20598;DHT22;10457;48.770;11.446;2022-11-20T15:50:12;6.30;99.90
20598;DHT22;10457;48.770;11.446;2022-11-20T15:55:39;6.50;98.80
20598;DHT22;10457;48.770;11.446;2022-11-20T16:01:00;6.40;98.70
20598;DHT22;10457;48.770;11.446;2022-11-20T16:06:22;6.40;99.00
20598;DHT22;10457;48.770;11.446;2022-11-20T16:11:45;6.50;97.70
20598;DHT22;10457;48.770;11.446;2022-11-20T16:17:06;6.40;99.90
20598;DHT22;10457;48.770;11.446;2022-11-20T16:22:28;6.40;99.90
20598;DHT22;10457;48.770;11.446;2022-11-20T16:27:50;6.50;99.90
20598;DHT22;10457;48.770;11.446;2022-11-20T16:33:13;6.50;99.90
20598;DHT22;10457;48.770;11.446;2022-11-20T16:38:37;6.50;99.90
20598;DHT22;10457;48.770;11.446;2022-11-20T16:44:01;6.50;96.80
20598;DHT22;10457;48.770;11.446;2022-11-20T16:49:24;6.50;95.00
20598;DHT22;10457;48.770;11.446;2022-11-20T16:54:45;6.40;94.90
20598;DHT22;10457;48.770;11.446;2022-11-20T17:00:15;6.40;95.60
20598;DHT22;10457;48.770;11.446;2022-11-20T17:05:36;6.20;97.50
20598;DHT22;10457;48.770;11.446;2022-11-20T17:11:04;6.10;99.00
20598;DHT22;10457;48.770;11.446;2022-11-20T17:16:27;5.90;99.90
20598;DHT22;10457;48.770;11.446;2022-11-20T17:21:49;5.70;99.90
20598;DHT22;10457;48.770;11.446;2022-11-20T17:27:10;5.80;99.90
20598;DHT22;10457;48.770;11.446;2022-11-20T17:32:33;5.80;99.90
20598;DHT22;10457;48.770;11.446;2022-11-20T17:37:55;5.80;99.90
20598;DHT22;10457;48.770;11.446;2022-11-20T17:43:21;5.80;99.90
20598;DHT22;10457;48.770;11.446;2022-11-20T17:48:45;5.70;99.90
20598;DHT22;10457;48.770;11.446;2022-11-20T17:54:07;5.70;99.90
20598;DHT22;10457;48.770;11.446;2022-11-20T17:59:30;5.50;99.90
20598;DHT22;10457;48.770;11.446;2022-11-20T18:04:53;5.40;99.90
20598;DHT22;10457;48.770;11.446;2022-11-20T18:10:14;5.40;99.90
20598;DHT22;10457;48.770;11.446;2022-11-20T18:15:36;5.10;99.90
20598;DHT22;10457;48.770;11.446;2022-11-20T18:20:58;5.10;99.90
20598;DHT22;10457;48.770;11.446;2022-11-20T18:26:20;5.00;99.90
20598;DHT22;10457;48.770;11.446;2022-11-20T18:31:42;4.90;99.90
20598;DHT22;10457;48.770;11.446;2022-11-20T18:37:05;4.80;99.90
20598;DHT22;10457;48.770;11.446;2022-11-20T18:42:28;4.70;99.90
20598;DHT22;10457;48.770;11.446;2022-11-20T18:48:11;4.70;99.90
20598;DHT22;10457;48.770;11.446;2022-11-20T18:53:35;4.80;99.90
20598;DHT22;10457;48.770;11.446;2022-11-20T18:59:22;4.80;99.90
20598;DHT22;10457;48.770;11.446;2022-11-20T19:04:44;4.90;99.90
20598;DHT22;10457;48.770;11.446;2022-11-20T19:10:07;4.80;99.90
20598;DHT22;10457;48.770;11.446;2022-11-20T19:15:29;4.80;99.90
20598;DHT22;10457;48.770;11.446;2022-11-20T19:20:53;4.60;99.90
20598;DHT22;10457;48.770;11.446;2022-11-20T19:26:16;4.60;99.90
20598;DHT22;10457;48.770;11.446;2022-11-20T19:31:37;4.50;99.90
20598;DHT22;10457;48.770;11.446;2022-11-20T19:36:59;4.50;99.90
20598;DHT22;10457;48.770;11.446;2022-11-20T19:42:22;4.50;99.90
20598;DHT22;10457;48.770;11.446;2022-11-20T19:47:44;4.50;99.90
20598;DHT22;10457;48.770;11.446;2022-11-20T19:53:05;4.50;99.90
20598;DHT22;10457;48.770;11.446;2022-11-20T19:58:28;4.50;99.90
20598;DHT22;10457;48.770;11.446;2022-11-20T20:03:50;4.50;99.90
20598;DHT22;10457;48.770;11.446;2022-11-20T20:09:12;4.50;99.90
20598;DHT22;10457;48.770;11.446;2022-11-20T20:14:35;4.40;99.90
20598;DHT22;10457;48.770;11.446;2022-11-20T20:19:57;4.50;99.90
20598;DHT22;10457;48.770;11.446;2022-11-20T20:25:18;4.70;99.90
20598;DHT22;10457;48.770;11.446;2022-11-20T20:30:41;4.70;99.90
20598;DHT22;10457;48.770;11.446;2022-11-20T20:36:03;4.80;99.90
20598;DHT22;10457;48.770;11.446;2022-11-20T20:41:24;4.80;99.90
20598;DHT22;10457;48.770;11.446;2022-11-20T20:46:50;4.80;99.90
20598;DHT22;10457;48.770;11.446;2022-11-20T20:52:12;4.90;99.90
20598;DHT22;10457;48.770;11.446;2022-11-20T20:57:33;4.90;99.90
20598;DHT22;10457;48.770;11.446;2022-11-20T21:02:59;5.00;99.90
20598;DHT22;10457;48.770;11.446;2022-11-20T21:08:20;5.10;99.90
20598;DHT22;10457;48.770;11.446;2022-11-20T21:13:44;5.20;99.90
20598;DHT22;10457;48.770;11.446;2022-11-20T21:19:08;5.20;99.90
20598;DHT22;10457;48.770;11.446;2022-11-20T21:24:31;5.30;99.90
20598;DHT22;10457;48.770;11.446;2022-11-20T21:29:54;5.30;99.90
20598;DHT22;10457;48.770;11.446;2022-11-20T21:35:16;5.30;99.90
20598;DHT22;10457;48.770;11.446;2022-11-20T21:40:38;5.30;99.90
20598;DHT22;10457;48.770;11.446;2022-11-20T21:46:00;5.20;99.90
20598;DHT22;10457;48.770;11.446;2022-11-20T21:51:24;5.00;99.90
20598;DHT22;10457;48.770;11.446;2022-11-20T21:56:47;5.00;99.90
20598;DHT22;10457;48.770;11.446;2022-11-20T22:02:10;4.90;99.90
20598;DHT22;10457;48.770;11.446;2022-11-20T22:07:33;4.80;99.90
20598;DHT22;10457;48.770;11.446;2022-11-20T22:13:01;4.80;99.90
20598;DHT22;10457;48.770;11.446;2022-11-20T22:18:40;4.60;99.90
20598;DHT22;10457;48.770;11.446;2022-11-20T22:24:14;4.60;99.90
20598;DHT22;10457;48.770;11.446;2022-11-20T22:29:36;4.60;99.90
20598;DHT22;10457;48.770;11.446;2022-11-20T22:34:58;4.60;99.90
20598;DHT22;10457;48.770;11.446;2022-11-20T22:40:21;4.70;99.90
20598;DHT22;10457;48.770;11.446;2022-11-20T22:45:43;4.70;99.90
20598;DHT22;10457;48.770;11.446;2022-11-20T22:51:07;4.60;99.90
20598;DHT22;10457;48.770;11.446;2022-11-20T22:56:30;4.60;99.90
20598;DHT22;10457;48.770;11.446;2022-11-20T23:01:52;4.50;99.90
20598;DHT22;10457;48.770;11.446;2022-11-20T23:07:14;4.60;99.90
20598;DHT22;10457;48.770;11.446;2022-11-20T23:12:36;4.60;99.90
20598;DHT22;10457;48.770;11.446;2022-11-20T23:17:58;4.70;99.90
20598;DHT22;10457;48.770;11.446;2022-11-20T23:23:19;4.70;99.90
20598;DHT22;10457;48.770;11.446;2022-11-20T23:28:42;4.70;99.90
20598;DHT22;10457;48.770;11.446;2022-11-20T23:34:04;4.70;99.90
20598;DHT22;10457;48.770;11.446;2022-11-20T23:39:25;4.80;99.90
20598;DHT22;10457;48.770;11.446;2022-11-20T23:44:48;4.80;99.90
20598;DHT22;10457;48.770;11.446;2022-11-20T23:50:09;4.70;99.90
20598;DHT22;10457;48.770;11.446;2022-11-20T23:55:31;4.80;99.90
